Time;durP1;ratioP1;P1;durP2;ratioP2;P2;SDS_P1;SDS_P2;PMS_P1;PMS_P2;Temp;Humidity;BMP_temperature;BMP_pressure;BME280_temperature;BME280_humidity;BME280_pressure;Samples;Min_cycle;Max_cycle;Signal;HPM_P1;HPM_P2
2022/03/12 00:01:06;;;;;;;12.03;8.23;;;;;;;3.46;40.07;102307.09;4975525;28;20219;-71
2022/03/12 00:03:32;;;;;;;12.70;8.57;;;;;;;3.51;39.79;102310.84;4989384;28;20246;-71
2022/03/12 00:06:00;;;;;;;12.00;7.90;;;;;;;3.48;40.36;102314.78;4986242;28;20192;-71
2022/03/12 00:08:34;;;;;;;14.47;7.83;;;;;;;3.42;40.96;102322.84;4982674;28;20211;-71
2022/03/12 00:11:02;;;;;;;14.73;8.10;;;;;;;3.40;39.94;102310.84;4989242;28;20242;-71
2022/03/12 00:13:27;;;;;;;12.30;7.33;;;;;;;3.37;41.24;102310.59;4983136;28;20210;-71
2022/03/12 00:15:55;;;;;;;15.57;8.70;;;;;;;3.39;39.33;102309.94;4969778;28;20196;-71
2022/03/12 00:18:21;;;;;;;14.17;7.97;;;;;;;3.35;39.88;102302.91;4970943;28;20197;-71
2022/03/12 00:20:48;;;;;;;14.03;8.10;;;;;;;3.28;40.24;102300.72;4970971;28;20219;-71
2022/03/12 00:23:20;;;;;;;11.10;7.90;;;;;;;3.25;40.13;102305.56;4971044;28;20254;-71
2022/03/12 00:25:47;;;;;;;12.20;8.10;;;;;;;3.25;41.29;102303.03;4953568;28;20192;-71
2022/03/12 00:28:12;;;;;;;16.83;8.43;;;;;;;3.25;40.54;102294.53;4970998;28;20173;-71
2022/03/12 00:30:39;;;;;;;10.33;7.47;;;;;;;3.18;40.81;102299.94;4970761;28;20195;-71
2022/03/12 00:33:05;;;;;;;15.67;7.93;;;;;;;3.17;41.30;102296.53;4970697;28;20254;-71
2022/03/12 00:35:32;;;;;;;14.87;7.60;;;;;;;3.16;41.25;102309.94;4969874;28;20775;-71
2022/03/12 00:37:57;;;;;;;12.43;7.70;;;;;;;3.06;40.68;102305.00;4969766;28;20247;-71
2022/03/12 00:40:23;;;;;;;12.17;7.33;;;;;;;3.02;41.35;102303.03;4969451;28;20189;-71
2022/03/12 00:42:49;;;;;;;13.13;7.80;;;;;;;3.01;41.45;102306.31;4970883;28;20188;-71
2022/03/12 00:45:15;;;;;;;12.30;7.90;;;;;;;3.06;40.78;102306.66;4953579;28;20195;-71
2022/03/12 00:47:40;;;;;;;12.80;7.93;;;;;;;2.99;40.85;102307.84;4969474;28;20185;-71
2022/03/12 00:50:06;;;;;;;14.37;8.07;;;;;;;3.00;40.35;102311.28;4971202;28;20215;-71
2022/03/12 00:52:32;;;;;;;14.57;8.60;;;;;;;2.92;41.54;102299.69;4970767;28;20299;-71
2022/03/12 00:54:58;;;;;;;12.03;7.97;;;;;;;2.87;41.11;102306.97;4970778;28;20806;-71
2022/03/12 00:57:23;;;;;;;12.10;7.73;;;;;;;2.90;41.89;102301.25;4978659;28;20187;-71
2022/03/12 00:59:49;;;;;;;11.83;7.73;;;;;;;2.85;40.78;102302.56;4985737;28;20193;-71
2022/03/12 01:02:18;;;;;;;11.87;7.97;;;;;;;2.85;40.64;102307.63;4969080;28;20191;-71
2022/03/12 01:04:44;;;;;;;11.43;7.50;;;;;;;2.81;41.81;102309.03;4970628;28;20467;-71
2022/03/12 01:07:10;;;;;;;12.53;7.83;;;;;;;2.82;41.18;102309.91;4977544;28;20422;-71
2022/03/12 01:09:36;;;;;;;11.37;7.27;;;;;;;2.80;41.42;102309.81;4985266;28;20212;-71
2022/03/12 01:12:02;;;;;;;12.60;7.67;;;;;;;2.75;40.94;102311.13;4970328;28;20434;-71
2022/03/12 01:14:28;;;;;;;12.27;7.47;;;;;;;2.72;40.92;102310.88;4968913;28;20208;-71
2022/03/12 01:16:56;;;;;;;13.07;7.50;;;;;;;2.73;41.87;102315.19;4969799;28;20439;-71
2022/03/12 01:19:21;;;;;;;12.60;7.80;;;;;;;2.67;42.01;102314.72;4974211;28;20196;-72
2022/03/12 01:21:47;;;;;;;11.47;7.60;;;;;;;2.62;41.52;102308.44;4972843;28;20506;-71
2022/03/12 01:24:12;;;;;;;11.53;7.73;;;;;;;2.65;40.93;102311.22;4974240;28;20224;-71
2022/03/12 01:26:40;;;;;;;15.70;7.40;;;;;;;2.60;41.08;102312.53;4974185;28;20199;-71
2022/03/12 01:29:07;;;;;;;12.83;7.70;;;;;;;2.59;41.65;102317.47;4972844;28;20250;-71
2022/03/12 01:31:34;;;;;;;13.23;8.20;;;;;;;2.53;42.06;102314.47;4973923;28;20419;-71
2022/03/12 01:34:00;;;;;;;11.57;7.20;;;;;;;2.51;41.95;102300.84;4974069;28;20454;-71
2022/03/12 01:36:26;;;;;;;13.37;8.30;;;;;;;2.51;41.26;102303.34;4974142;28;20440;-71
2022/03/12 01:38:53;;;;;;;12.80;7.60;;;;;;;2.50;41.16;102304.13;4974035;28;20443;-71
2022/03/12 01:41:21;;;;;;;13.93;7.73;;;;;;;2.51;41.83;102300.84;4972337;28;20204;-71
2022/03/12 01:43:48;;;;;;;13.23;7.50;;;;;;;2.51;41.61;102289.09;4972559;28;20462;-71
2022/03/12 01:46:13;;;;;;;12.67;7.67;;;;;;;2.48;42.44;102282.94;4973884;28;20899;-71
2022/03/12 01:48:47;;;;;;;13.53;7.83;;;;;;;2.46;42.18;102271.81;4973838;28;20467;-71
2022/03/12 01:51:13;;;;;;;12.70;7.60;;;;;;;2.40;42.56;102277.31;4990869;28;20530;-71
2022/03/12 01:53:39;;;;;;;11.77;7.23;;;;;;;2.39;41.42;102277.19;4993070;28;20451;-71
2022/03/12 01:56:05;;;;;;;13.37;7.60;;;;;;;2.34;41.88;102281.03;4991767;28;20851;-71
2022/03/12 01:58:30;;;;;;;13.67;8.30;;;;;;;2.35;41.25;102278.59;4980367;28;20223;-71
2022/03/12 02:00:57;;;;;;;12.93;7.60;;;;;;;2.37;42.03;102282.13;4973458;28;20189;-71
2022/03/12 02:03:28;;;;;;;12.67;7.90;;;;;;;2.30;41.69;102284.09;4972193;28;20458;-71
2022/03/12 02:05:54;;;;;;;14.37;8.00;;;;;;;2.32;41.19;102283.44;4976052;28;20458;-71
2022/03/12 02:08:20;;;;;;;12.90;7.83;;;;;;;2.35;41.42;102283.63;4981054;28;20444;-71
2022/03/12 02:10:47;;;;;;;13.43;7.97;;;;;;;2.29;41.69;102284.88;4973550;28;20945;-71
2022/03/12 02:13:14;;;;;;;12.43;7.73;;;;;;;2.25;42.22;102290.44;4972654;28;20247;-72
2022/03/12 02:15:39;;;;;;;12.20;7.47;;;;;;;2.21;41.62;102278.34;4987451;28;20440;-71
2022/03/12 02:18:05;;;;;;;13.10;7.40;;;;;;;2.16;42.50;102283.03;4973442;28;20486;-71
2022/03/12 02:20:31;;;;;;;11.80;7.43;;;;;;;2.12;42.60;102281.03;4988120;28;20637;-71
2022/03/12 02:22:59;;;;;;;12.70;7.70;;;;;;;2.16;42.40;102279.66;4973242;28;20189;-71
2022/03/12 02:25:30;;;;;;;13.53;7.93;;;;;;;2.14;42.08;102273.56;4973451;28;20603;-73
2022/03/12 02:27:56;;;;;;;12.10;7.27;;;;;;;2.10;42.66;102272.47;4988136;28;20452;-70
2022/03/12 02:30:25;;;;;;;13.03;7.53;;;;;;;2.06;42.09;102273.00;4973848;28;20495;-70
2022/03/12 02:32:54;;;;;;;14.53;7.60;;;;;;;2.02;42.01;102271.00;4980888;28;20490;-70
2022/03/12 02:35:24;;;;;;;11.87;6.83;;;;;;;1.99;42.26;102272.44;4971680;28;20448;-70
2022/03/12 02:37:52;;;;;;;14.40;7.87;;;;;;;1.95;42.66;102267.91;4988119;28;20959;-70
2022/03/12 02:40:18;;;;;;;11.90;7.47;;;;;;;1.92;42.55;102267.69;4992500;28;20477;-73
2022/03/12 02:42:48;;;;;;;14.37;7.33;;;;;;;1.87;42.36;102257.22;4991518;28;20431;-71
2022/03/12 02:45:14;;;;;;;12.83;8.30;;;;;;;1.88;42.80;102260.66;4992552;28;20423;-70
2022/03/12 02:47:42;;;;;;;13.00;7.10;;;;;;;1.86;42.86;102247.91;4990502;28;20439;-70
2022/03/12 02:50:09;;;;;;;13.60;7.50;;;;;;;1.83;43.07;102252.69;4979949;28;20208;-71
2022/03/12 02:52:39;;;;;;;13.17;8.27;;;;;;;1.84;42.23;102244.34;4972675;28;20510;-70
2022/03/12 02:55:05;;;;;;;11.83;7.67;;;;;;;1.86;42.18;102240.31;4992004;28;20490;-71
2022/03/12 02:57:31;;;;;;;12.83;7.63;;;;;;;1.72;42.46;102238.41;4984798;28;20498;-70
2022/03/12 03:00:06;;;;;;;10.40;6.93;;;;;;;1.77;42.71;102237.09;4972541;28;20176;-70
2022/03/12 03:02:39;;;;;;;11.80;7.23;;;;;;;1.77;41.89;102243.78;4986593;28;20259;-70
2022/03/12 03:05:16;;;;;;;11.57;7.20;;;;;;;1.75;42.80;102233.56;4972798;28;20808;-71
2022/03/12 03:07:45;;;;;;;12.50;7.97;;;;;;;1.71;42.74;102248.38;4986826;28;20444;-70
2022/03/12 03:10:31;;;;;;;12.83;8.27;;;;;;;1.72;42.07;102260.22;4972448;28;20472;-71
2022/03/12 03:12:58;;;;;;;11.93;7.37;;;;;;;1.71;42.71;102246.72;4972372;28;20443;-71
2022/03/12 03:15:25;;;;;;;11.43;7.10;;;;;;;1.68;42.10;102248.13;4976929;28;20465;-70
2022/03/12 03:17:51;;;;;;;13.47;7.67;;;;;;;1.63;42.87;102250.31;4990362;28;20458;-71
2022/03/12 03:20:16;;;;;;;12.13;7.70;;;;;;;1.64;42.92;102251.16;4991026;28;20473;-71
2022/03/12 03:22:41;;;;;;;12.90;7.87;;;;;;;1.61;42.55;102246.75;4982407;28;20185;-71
2022/03/12 03:25:09;;;;;;;12.53;7.63;;;;;;;1.63;43.27;102247.78;4990861;28;20204;-71
2022/03/12 03:27:34;;;;;;;11.13;7.10;;;;;;;1.60;43.54;102249.19;4983505;28;20470;-70
2022/03/12 03:29:59;;;;;;;14.40;7.63;;;;;;;1.54;42.85;102248.69;4985683;28;20297;-70
2022/03/12 03:32:25;;;;;;;12.90;7.83;;;;;;;1.52;43.11;102243.53;4973689;28;20307;-71
2022/03/12 03:34:50;;;;;;;14.27;7.50;;;;;;;1.53;43.03;102232.69;4991328;28;20215;-71
2022/03/12 03:37:15;;;;;;;9.23;6.87;;;;;;;1.53;42.61;102234.34;4975398;28;20273;-71
2022/03/12 03:39:41;;;;;;;11.43;7.00;;;;;;;1.54;42.63;102238.59;4971993;28;20181;-70
2022/03/12 03:42:06;;;;;;;14.63;7.37;;;;;;;1.53;43.06;102237.75;4981158;28;20201;-71
2022/03/12 03:44:32;;;;;;;13.60;7.50;;;;;;;1.52;42.30;102228.38;4982441;28;20283;-70
2022/03/12 03:46:58;;;;;;;10.93;6.73;;;;;;;1.51;42.43;102234.22;4973766;28;20579;-70
2022/03/12 03:49:24;;;;;;;15.57;7.67;;;;;;;1.43;42.52;102229.34;4991204;28;20298;-70
2022/03/12 03:51:51;;;;;;;10.97;7.37;;;;;;;1.53;43.08;102234.34;4986910;28;20550;-70
2022/03/12 03:54:16;;;;;;;12.97;7.00;;;;;;;1.52;42.36;102240.16;4979383;28;20992;-70
2022/03/12 03:56:41;;;;;;;11.43;6.63;;;;;;;1.50;42.64;102250.13;4971978;28;20471;-70
2022/03/12 03:59:07;;;;;;;13.47;7.07;;;;;;;1.46;42.51;102239.69;4979637;28;20184;-70
2022/03/12 04:01:41;;;;;;;13.20;7.33;;;;;;;1.45;42.51;102246.34;4985303;28;20187;-70
2022/03/12 04:04:08;;;;;;;13.90;7.47;;;;;;;1.44;42.53;102247.13;4971537;28;20307;-70
2022/03/12 04:06:33;;;;;;;10.87;7.10;;;;;;;1.43;42.09;102237.81;4981780;28;20476;-70
2022/03/12 04:08:58;;;;;;;10.37;6.83;;;;;;;1.37;42.94;102244.88;4982522;28;21010;-70
2022/03/12 04:11:25;;;;;;;12.33;6.57;;;;;;;1.37;42.43;102237.31;4971340;28;20188;-70
2022/03/12 04:13:52;;;;;;;12.73;7.30;;;;;;;1.38;43.00;102238.19;4971491;28;20355;-70
2022/03/12 04:16:20;;;;;;;11.47;7.47;;;;;;;1.32;43.37;102237.72;4986247;28;20440;-70
2022/03/12 04:18:47;;;;;;;10.83;7.27;;;;;;;1.26;43.66;102230.56;4979094;28;20446;-70
2022/03/12 04:21:13;;;;;;;12.60;7.33;;;;;;;1.30;43.69;102240.13;4986100;28;20450;-70
2022/03/12 04:23:39;;;;;;;11.17;6.77;;;;;;;1.25;43.49;102231.31;4973930;28;21136;-70
2022/03/12 04:26:05;;;;;;;12.80;7.77;;;;;;;1.20;43.95;102235.13;4981134;28;20929;-70
2022/03/12 04:28:32;;;;;;;10.83;7.17;;;;;;;1.17;43.62;102233.97;4970834;28;20440;-70
2022/03/12 04:30:59;;;;;;;13.37;7.20;;;;;;;1.10;44.13;102222.53;4988733;28;20286;-70
2022/03/12 04:33:25;;;;;;;12.07;7.37;;;;;;;1.11;43.89;102229.38;4976655;28;20475;-70
2022/03/12 04:35:51;;;;;;;14.20;7.43;;;;;;;1.10;44.56;102231.75;4970958;28;20448;-70
2022/03/12 04:38:17;;;;;;;11.73;7.07;;;;;;;1.06;44.05;102229.75;4980099;28;20219;-70
2022/03/12 04:40:44;;;;;;;14.97;7.60;;;;;;;1.02;44.28;102243.75;4977278;28;20219;-70
2022/03/12 04:43:12;;;;;;;13.27;7.57;;;;;;;1.01;43.98;102244.50;4971454;28;20467;-70
2022/03/12 04:45:39;;;;;;;13.63;7.87;;;;;;;0.99;44.11;102242.63;4970109;28;20878;-70
2022/03/12 04:48:06;;;;;;;13.13;7.00;;;;;;;0.99;44.64;102245.13;4981823;28;20546;-70
2022/03/12 04:50:31;;;;;;;11.93;7.70;;;;;;;0.92;44.76;102240.38;4990120;28;21023;-70
2022/03/12 04:52:59;;;;;;;12.70;6.90;;;;;;;0.92;44.34;102240.38;4977995;28;20436;-70
2022/03/12 04:55:27;;;;;;;11.70;7.07;;;;;;;0.88;44.84;102244.31;4985352;28;20192;-70
2022/03/12 04:57:53;;;;;;;14.20;8.33;;;;;;;0.88;44.76;102244.31;4985182;28;20479;-70
2022/03/12 05:00:27;;;;;;;10.40;6.97;;;;;;;0.89;44.65;102248.59;4973050;28;20440;-71
2022/03/12 05:03:01;;;;;;;13.03;7.57;;;;;;;0.86;44.57;102253.38;4970589;28;20203;-70
2022/03/12 05:05:26;;;;;;;11.50;7.37;;;;;;;0.77;44.42;102255.16;4969290;28;20458;-70
2022/03/12 05:07:51;;;;;;;13.33;7.87;;;;;;;0.76;44.79;102258.44;4975763;28;21086;-70
2022/03/12 05:10:17;;;;;;;11.47;7.40;;;;;;;0.73;45.22;102250.63;4970665;28;20215;-70
2022/03/12 05:12:48;;;;;;;11.30;7.37;;;;;;;0.68;44.94;102261.97;4978003;28;20187;-70
2022/03/12 05:15:15;;;;;;;14.27;7.20;;;;;;;0.68;45.37;102264.50;4989808;28;20451;-70
2022/03/12 05:17:50;;;;;;;13.37;7.03;;;;;;;0.67;45.26;102274.44;4979599;28;20506;-70
2022/03/12 05:20:25;;;;;;;12.07;7.47;;;;;;;0.60;46.02;102285.69;4970589;28;20502;-70
2022/03/12 05:22:51;;;;;;;12.50;7.63;;;;;;;0.57;45.66;102290.47;4979490;28;20535;-70
2022/03/12 05:25:18;;;;;;;14.13;7.10;;;;;;;0.51;46.30;102279.00;4986139;28;20557;-70
2022/03/12 05:27:48;;;;;;;12.40;7.10;;;;;;;0.50;46.39;102285.66;4954325;28;20193;-70
2022/03/12 05:30:14;;;;;;;11.63;7.37;;;;;;;0.46;46.21;102283.66;4972154;28;20483;-70
2022/03/12 05:32:40;;;;;;;11.13;7.17;;;;;;;0.47;46.22;102282.03;4982643;28;20501;-70
2022/03/12 05:35:07;;;;;;;12.53;7.00;;;;;;;0.50;46.29;102289.84;4988986;28;20202;-70
2022/03/12 05:37:33;;;;;;;11.47;7.33;;;;;;;0.43;46.10;102289.31;4970292;28;20440;-70
2022/03/12 05:39:58;;;;;;;11.70;6.97;;;;;;;0.39;46.42;102299.03;4970409;28;20239;-71
2022/03/12 05:42:25;;;;;;;11.20;6.80;;;;;;;0.43;46.18;102302.66;4970348;28;20203;-70
2022/03/12 05:44:51;;;;;;;12.10;7.10;;;;;;;0.37;46.11;102302.16;4969573;28;20212;-70
2022/03/12 05:47:20;;;;;;;13.17;7.20;;;;;;;0.36;46.78;102305.44;4971935;28;20526;-71
2022/03/12 05:49:46;;;;;;;11.77;7.57;;;;;;;0.32;46.43;102308.47;4988607;28;20853;-70
2022/03/12 05:52:11;;;;;;;12.40;7.07;;;;;;;0.32;46.27;102301.78;4989643;28;20493;-70
2022/03/12 05:54:37;;;;;;;9.77;6.53;;;;;;;0.36;46.42;102302.94;4988253;28;20219;-70
2022/03/12 05:57:02;;;;;;;10.63;6.80;;;;;;;0.32;46.23;102292.59;4988425;28;20192;-70
2022/03/12 05:59:28;;;;;;;12.77;6.83;;;;;;;0.34;46.66;102303.66;4988255;28;20635;-70
2022/03/12 06:01:53;;;;;;;11.07;6.90;;;;;;;0.37;45.79;102308.09;4989493;28;20205;-71
2022/03/12 06:04:25;;;;;;;11.23;6.87;;;;;;;0.37;45.57;102308.09;4990693;28;20231;-70
2022/03/12 06:06:52;;;;;;;10.03;7.03;;;;;;;0.43;45.44;102304.44;4987515;28;20662;-70
2022/03/12 06:09:18;;;;;;;11.00;6.73;;;;;;;0.41;45.42;102304.19;4989477;28;20475;-70
2022/03/12 06:11:45;;;;;;;13.43;7.27;;;;;;;0.52;45.15;102309.34;4992773;28;20443;-70
2022/03/12 06:14:14;;;;;;;12.23;6.43;;;;;;;0.55;45.11;102318.81;4992893;28;20469;-70
2022/03/12 06:16:39;;;;;;;10.60;6.63;;;;;;;0.56;45.05;102311.38;4992442;28;20928;-70
2022/03/12 06:19:04;;;;;;;10.67;7.07;;;;;;;0.66;45.18;102310.47;4992935;28;20497;-70
2022/03/12 06:21:31;;;;;;;12.00;6.50;;;;;;;0.66;44.17;102313.88;4992709;28;20275;-70
2022/03/12 06:23:56;;;;;;;10.37;6.90;;;;;;;0.71;44.43;102310.09;4990729;28;20550;-71
2022/03/12 06:26:22;;;;;;;10.73;6.57;;;;;;;0.80;43.79;102318.41;4971751;28;20199;-71
2022/03/12 06:28:47;;;;;;;11.50;7.30;;;;;;;0.87;44.16;102317.28;4973074;28;20220;-71
2022/03/12 06:31:13;;;;;;;10.43;6.47;;;;;;;0.88;43.66;102322.44;4981090;28;20207;-73
2022/03/12 06:33:39;;;;;;;10.03;6.50;;;;;;;0.94;43.58;102320.41;4991980;28;20211;-71
2022/03/12 06:36:05;;;;;;;10.10;6.57;;;;;;;1.01;44.31;102314.22;4992514;28;20188;-71
2022/03/12 06:38:31;;;;;;;12.73;6.30;;;;;;;1.17;42.87;102313.06;4991607;28;20462;-70
2022/03/12 06:40:58;;;;;;;11.33;6.50;;;;;;;1.27;43.13;102309.59;4990861;28;20435;-71
2022/03/12 06:43:28;;;;;;;9.40;6.00;;;;;;;1.34;42.32;102306.81;4992459;28;20467;-70
2022/03/12 06:45:56;;;;;;;12.23;6.77;;;;;;;1.40;42.44;102317.38;4992227;28;20443;-71
2022/03/12 06:48:22;;;;;;;11.83;6.63;;;;;;;1.59;42.00;102321.50;5007228;28;20482;-71
2022/03/12 06:50:47;;;;;;;10.43;6.30;;;;;;;1.68;41.50;102329.78;4992189;28;20956;-71
2022/03/12 06:53:14;;;;;;;9.97;6.63;;;;;;;1.86;41.66;102328.69;4991828;28;20230;-71
2022/03/12 06:55:39;;;;;;;9.33;5.83;;;;;;;1.99;41.44;102325.47;4990938;28;20678;-71
2022/03/12 06:58:05;;;;;;;12.57;7.10;;;;;;;2.22;40.38;102320.50;4992174;28;20454;-71
2022/03/12 07:00:31;;;;;;;12.13;6.37;;;;;;;2.34;40.27;102323.97;4992056;28;20250;-70
2022/03/12 07:02:57;;;;;;;12.83;6.73;;;;;;;2.55;40.12;102323.94;4991816;28;20192;-70
2022/03/12 07:05:23;;;;;;;11.67;6.37;;;;;;;2.66;38.66;102322.22;4991281;28;20434;-70
2022/03/12 07:07:50;;;;;;;16.13;6.90;;;;;;;2.75;38.55;102318.69;4984001;28;20808;-70
2022/03/12 07:10:16;;;;;;;11.77;7.47;;;;;;;3.11;38.55;102323.94;4991995;28;20482;-71
2022/03/12 07:12:45;;;;;;;13.23;6.47;;;;;;;3.14;38.63;102321.63;4991678;28;20438;-71
2022/03/12 07:15:11;;;;;;;12.70;6.80;;;;;;;3.33;37.44;102318.75;4991183;28;20220;-71
2022/03/12 07:17:36;;;;;;;11.17;6.30;;;;;;;3.27;37.41;102328.44;4991433;28;20462;-71
2022/03/12 07:20:03;;;;;;;9.83;6.73;;;;;;;3.50;38.03;102329.28;4991646;28;20868;-71
2022/03/12 07:22:29;;;;;;;11.07;6.63;;;;;;;3.59;36.86;102329.94;4991417;28;20254;-70
2022/03/12 07:24:55;;;;;;;7.90;6.10;;;;;;;3.94;36.59;102324.81;4980356;28;20220;-71
2022/03/12 07:27:20;;;;;;;9.47;6.00;;;;;;;3.98;35.86;102326.78;4971895;28;20193;-71
2022/03/12 07:29:45;;;;;;;10.07;6.30;;;;;;;4.09;36.30;102324.22;4970724;28;20227;-71
2022/03/12 07:32:11;;;;;;;11.37;6.27;;;;;;;4.13;35.98;102326.19;4973838;28;20196;-72
2022/03/12 07:34:37;;;;;;;12.40;6.80;;;;;;;4.35;35.39;102324.34;4952336;28;20265;-71
2022/03/12 07:37:02;;;;;;;8.60;6.13;;;;;;;4.24;35.63;102317.66;4970333;28;20188;-70
2022/03/12 07:39:28;;;;;;;9.63;5.90;;;;;;;4.58;34.74;102319.16;4963979;28;20207;-71
2022/03/12 07:41:53;;;;;;;8.57;5.67;;;;;;;4.85;34.41;102318.47;4969968;28;20196;-71
2022/03/12 07:44:18;;;;;;;10.30;6.40;;;;;;;5.00;34.09;102326.16;4969943;28;20246;-71
2022/03/12 07:46:45;;;;;;;9.73;5.47;;;;;;;5.20;33.95;102323.28;4971163;28;20196;-71
2022/03/12 07:49:11;;;;;;;9.93;6.43;;;;;;;5.26;33.92;102323.66;4971544;28;20215;-71
2022/03/12 07:51:36;;;;;;;10.30;6.23;;;;;;;5.40;33.40;102333.94;4970693;28;20189;-71
2022/03/12 07:54:04;;;;;;;10.53;6.03;;;;;;;5.90;33.60;102324.41;4952123;28;20201;-72
2022/03/12 07:56:29;;;;;;;8.60;6.10;;;;;;;5.70;32.56;102334.97;4950906;29;20204;-71
2022/03/12 07:58:55;;;;;;;7.97;5.73;;;;;;;6.02;32.55;102323.50;4950748;29;20213;-70
2022/03/12 08:01:21;;;;;;;9.40;6.10;;;;;;;5.92;32.03;102320.28;4951886;28;20199;-70
2022/03/12 08:03:46;;;;;;;10.47;6.10;;;;;;;6.14;31.88;102323.38;4951829;28;20216;-71
2022/03/12 08:06:14;;;;;;;9.37;5.93;;;;;;;6.44;32.00;102322.69;4959065;28;20575;-70
2022/03/12 08:08:39;;;;;;;8.70;6.10;;;;;;;6.19;31.68;102322.88;4969855;28;20207;-72
2022/03/12 08:13:49;;;;;;;10.63;6.80;;;;;;;6.68;31.07;102331.75;4971183;28;20218;-71
2022/03/12 08:16:15;;;;;;;10.50;6.30;;;;;;;7.03;30.19;102327.00;4971305;28;20199;-71
2022/03/12 08:18:41;;;;;;;8.53;6.40;;;;;;;6.84;30.67;102327.63;4971133;28;20196;-71
2022/03/12 08:21:06;;;;;;;8.10;6.07;;;;;;;6.97;30.41;102327.56;4956665;28;20184;-71
2022/03/12 08:23:33;;;;;;;9.53;6.03;;;;;;;7.55;30.19;102319.81;4951611;29;20209;-71
2022/03/12 08:26:00;;;;;;;8.43;6.30;;;;;;;7.87;30.38;102319.91;4969227;28;20821;-71
2022/03/12 08:28:25;;;;;;;8.73;5.57;;;;;;;7.87;29.26;102319.03;4970314;28;20192;-71
2022/03/12 08:30:51;;;;;;;9.50;6.63;;;;;;;8.00;29.40;102321.44;4970872;28;20650;-71
2022/03/12 08:33:17;;;;;;;9.10;6.07;;;;;;;8.14;29.17;102320.47;4970544;28;20200;-72
2022/03/12 08:35:42;;;;;;;8.33;6.00;;;;;;;7.62;29.09;102324.47;4977580;28;20223;-72
2022/03/12 08:38:08;;;;;;;8.57;6.37;;;;;;;8.04;29.82;102316.59;4989090;28;20830;-71
2022/03/12 08:40:34;;;;;;;8.80;5.97;;;;;;;7.87;29.32;102327.56;4990049;28;20661;-72
2022/03/12 08:42:59;;;;;;;8.20;5.63;;;;;;;8.82;28.61;102330.94;4969159;28;20207;-73
2022/03/12 08:45:26;;;;;;;8.73;6.47;;;;;;;9.34;27.52;102327.56;4970747;28;20191;-73
2022/03/12 08:47:52;;;;;;;8.27;5.93;;;;;;;9.06;27.29;102333.81;4971017;28;20219;-72
2022/03/12 08:50:17;;;;;;;8.23;6.00;;;;;;;9.11;27.30;102332.34;4970405;28;20208;-72
2022/03/12 08:52:43;;;;;;;9.83;6.37;;;;;;;9.84;27.41;102324.81;4970504;28;20195;-73
2022/03/12 08:55:09;;;;;;;9.53;6.50;;;;;;;10.03;27.06;102327.41;4969113;28;20707;-73
2022/03/12 08:57:35;;;;;;;9.73;5.33;;;;;;;9.57;27.56;102321.84;4971148;28;20184;-73
2022/03/12 09:00:05;;;;;;;9.57;6.03;;;;;;;9.60;26.70;102324.56;4970208;28;20188;-72
2022/03/12 09:02:34;;;;;;;7.60;5.77;;;;;;;10.28;26.65;102320.06;4971302;28;20199;-73
2022/03/12 09:05:04;;;;;;;8.43;6.47;;;;;;;10.85;25.44;102309.72;4969402;28;20550;-73
2022/03/12 09:07:30;;;;;;;8.17;6.07;;;;;;;10.77;25.27;102308.53;4977042;28;20196;-73
2022/03/12 09:09:56;;;;;;;7.77;5.87;;;;;;;10.31;25.05;102309.94;4970434;28;20319;-74
2022/03/12 09:12:22;;;;;;;7.10;5.90;;;;;;;10.17;26.17;102313.56;4969078;28;20327;-73
2022/03/12 09:14:48;;;;;;;9.03;6.50;;;;;;;10.90;25.78;102304.00;4970356;28;20212;-73
2022/03/12 09:17:14;;;;;;;7.30;5.53;;;;;;;10.85;25.64;102304.63;4972763;28;20199;-74
2022/03/12 09:19:39;;;;;;;9.97;6.00;;;;;;;10.60;26.14;102299.28;4989018;28;20187;-73
2022/03/12 09:22:05;;;;;;;7.90;6.20;;;;;;;10.86;25.49;102302.13;4989671;28;20191;-73
2022/03/12 09:24:30;;;;;;;6.77;5.73;;;;;;;11.66;24.76;102287.44;4982086;28;20208;-73
2022/03/12 09:26:55;;;;;;;9.27;6.20;;;;;;;12.18;23.83;102298.81;4989862;28;20282;-73
2022/03/12 09:29:22;;;;;;;10.00;6.37;;;;;;;12.94;22.84;102285.19;4985347;28;20298;-73
2022/03/12 09:31:48;;;;;;;8.20;6.63;;;;;;;15.42;20.68;102271.72;4985501;28;20535;-74
2022/03/12 09:34:13;;;;;;;7.57;6.33;;;;;;;17.45;19.36;102258.34;4957067;28;20238;-73
2022/03/12 09:36:40;;;;;;;6.43;5.67;;;;;;;16.21;19.49;102270.81;4970525;28;20195;-74
2022/03/12 09:39:06;;;;;;;8.37;6.57;;;;;;;12.57;22.71;102290.81;4966980;28;20267;-73
2022/03/12 09:41:33;;;;;;;7.40;6.17;;;;;;;11.79;23.14;102287.06;4974200;28;20180;-74
2022/03/12 09:43:59;;;;;;;8.97;6.00;;;;;;;11.42;24.00;102284.75;4973008;28;20295;-75
2022/03/12 09:46:24;;;;;;;7.20;5.60;;;;;;;11.91;24.35;102290.09;4974056;28;20271;-73
2022/03/12 09:48:49;;;;;;;9.73;5.70;;;;;;;13.16;22.67;102279.97;4973701;28;20212;-73
2022/03/12 09:51:15;;;;;;;8.77;5.97;;;;;;;13.60;22.22;102277.09;4972261;28;20247;-73
2022/03/12 09:53:41;;;;;;;7.67;5.93;;;;;;;13.52;22.27;102277.66;4956237;28;20200;-73
2022/03/12 09:56:06;;;;;;;8.37;6.07;;;;;;;15.69;19.88;102264.56;4973659;28;20188;-73
2022/03/12 09:58:33;;;;;;;8.97;5.80;;;;;;;15.99;19.73;102258.34;4972315;28;20181;-74
2022/03/12 10:00:59;;;;;;;6.93;5.83;;;;;;;18.22;17.48;102247.22;4973485;28;20283;-73
2022/03/12 10:03:24;;;;;;;7.30;6.07;;;;;;;20.13;16.39;102244.34;4971896;28;20271;-73
2022/03/12 10:05:49;;;;;;;7.40;6.57;;;;;;;21.20;15.49;102229.69;4974204;28;20192;-74
2022/03/12 10:08:16;;;;;;;6.97;6.27;;;;;;;21.94;15.06;102230.31;4983777;28;20581;-73
2022/03/12 10:10:41;;;;;;;6.72;5.93;;;;;;;23.37;14.50;102231.84;4992698;28;20642;-74
2022/03/12 10:13:07;;;;;;;7.43;6.18;;;;;;;21.37;14.98;102247.00;4978503;28;20275;-74
2022/03/12 10:15:32;;;;;;;7.57;5.53;;;;;;;22.89;14.20;102230.59;4955967;28;20219;-74
2022/03/12 10:18:00;;;;;;;9.60;6.95;;;;;;;22.43;14.03;102232.63;4979990;28;20203;-73
2022/03/12 10:20:25;;;;;;;8.18;6.22;;;;;;;23.74;13.95;102218.34;4992657;28;20180;-73
2022/03/12 10:22:52;;;;;;;6.50;5.90;;;;;;;22.57;14.42;102216.91;4992402;28;20680;-74
2022/03/12 10:25:17;;;;;;;7.10;6.40;;;;;;;23.62;13.58;102215.03;4988056;28;20683;-74
2022/03/12 10:27:43;;;;;;;6.47;5.82;;;;;;;24.98;12.87;102217.38;4971773;28;20307;-73
2022/03/12 10:30:10;;;;;;;6.68;5.93;;;;;;;24.10;13.29;102220.50;4972924;28;20302;-74
2022/03/12 10:32:44;;;;;;;7.30;6.43;;;;;;;23.46;13.99;102216.94;4991263;28;20207;-74
2022/03/12 10:35:10;;;;;;;7.13;6.45;;;;;;;24.85;13.19;102213.22;4991993;28;20211;-74
2022/03/12 10:37:35;;;;;;;9.55;5.97;;;;;;;24.93;13.18;102200.84;4992611;28;20666;-73
2022/03/12 10:40:10;;;;;;;6.80;6.07;;;;;;;25.07;12.64;102209.34;4992570;28;20211;-73
2022/03/12 10:42:51;;;;;;;6.80;5.90;;;;;;;24.92;12.67;102210.50;4990842;28;20198;-73
2022/03/12 10:45:28;;;;;;;6.78;6.18;;;;;;;23.78;13.03;102222.66;4991697;28;20656;-74
2022/03/12 10:47:59;;;;;;;6.72;6.03;;;;;;;25.54;12.87;102214.56;4992474;28;20272;-73
2022/03/12 10:50:36;;;;;;;10.63;5.82;;;;;;;24.15;13.52;102217.81;4991497;28;20305;-73
2022/03/12 10:53:05;;;;;;;7.47;6.03;;;;;;;24.20;13.20;102224.72;4991988;28;20199;-73
2022/03/12 10:55:34;;;;;;;9.25;7.45;;;;;;;27.01;11.83;102217.28;4992216;28;20556;-74
2022/03/12 10:58:26;;;;;;;7.53;6.82;;;;;;;26.72;12.06;102216.31;4990198;28;20184;-73
2022/03/12 11:00:56;;;;;;;7.22;6.38;;;;;;;23.99;12.91;102218.94;4980609;28;20176;-73
2022/03/12 11:03:24;;;;;;;6.80;6.10;;;;;;;26.96;11.64;102208.66;4970973;28;20283;-73
2022/03/12 11:05:51;;;;;;;8.85;6.10;;;;;;;25.21;12.31;102212.56;4986397;28;20183;-74
2022/03/12 11:08:18;;;;;;;6.22;5.55;;;;;;;25.55;12.56;102203.19;4988526;28;20199;-74
2022/03/12 11:10:50;;;;;;;6.90;6.20;;;;;;;27.63;11.97;102203.28;4972384;28;20266;-74
2022/03/12 11:13:45;;;;;;;7.95;6.13;;;;;;;27.50;11.63;102195.78;4972206;28;20250;-74
2022/03/12 11:16:26;;;;;;;7.18;6.47;;;;;;;27.29;11.03;102186.72;4970925;28;20193;-74
2022/03/12 11:18:51;;;;;;;7.53;6.38;;;;;;;28.17;10.80;102188.47;4971116;28;20247;-74
2022/03/12 11:21:28;;;;;;;6.38;5.78;;;;;;;29.63;10.55;102173.72;4972300;28;20756;-73
2022/03/12 11:23:55;;;;;;;7.18;5.97;;;;;;;27.10;11.85;102188.09;4976749;28;20282;-74
2022/03/12 11:26:21;;;;;;;8.13;6.05;;;;;;;27.98;11.44;102175.91;4989926;28;20187;-74
2022/03/12 11:28:57;;;;;;;7.25;6.43;;;;;;;29.90;10.78;102167.38;4986332;28;20654;-74